createdAt,value
2018-06-27T00:00:01.217Z,15.43
2018-06-27T00:02:29.790Z,14.03
2018-06-27T00:04:58.310Z,15.28
2018-06-27T00:07:26.882Z,15.00
2018-06-27T00:09:55.486Z,15.10
2018-06-27T00:12:28.302Z,15.20
2018-06-27T00:14:57.603Z,15.23
2018-06-27T00:17:26.862Z,14.75
2018-06-27T00:19:56.067Z,15.25
2018-06-27T00:22:24.580Z,15.98
2018-06-27T00:24:53.059Z,15.80
2018-06-27T00:27:21.591Z,16.15
2018-06-27T00:29:50.074Z,15.25
2018-06-27T00:32:18.757Z,15.40
2018-06-27T00:34:47.233Z,14.78
2018-06-27T00:37:15.742Z,15.83
2018-06-27T00:39:44.220Z,15.40
2018-06-27T00:42:12.704Z,15.35
2018-06-27T00:44:41.918Z,16.67
2018-06-27T00:47:10.463Z,16.05
2018-06-27T00:49:39.122Z,15.75
2018-06-27T00:52:07.697Z,15.55
2018-06-27T00:54:36.770Z,16.87
2018-06-27T00:57:05.335Z,15.20
2018-06-27T00:59:33.872Z,17.15
2018-06-27T01:02:02.417Z,16.62
2018-06-27T01:04:30.991Z,16.05
2018-06-27T01:06:59.545Z,17.02
2018-06-27T01:09:28.069Z,17.40
2018-06-27T01:11:56.595Z,16.35
2018-06-27T01:14:25.071Z,17.00
2018-06-27T01:16:53.554Z,17.27
2018-06-27T01:19:21.727Z,17.07
2018-06-27T01:21:50.195Z,17.25
2018-06-27T01:24:19.136Z,16.87
2018-06-27T01:26:47.614Z,16.85
2018-06-27T01:29:16.162Z,17.92
2018-06-27T01:31:44.880Z,16.77
2018-06-27T01:34:13.428Z,16.97
2018-06-27T01:36:41.993Z,17.65
2018-06-27T01:39:11.101Z,17.60
2018-06-27T01:41:40.088Z,17.55
2018-06-27T01:44:08.613Z,17.50
2018-06-27T01:59:37.116Z,18.10
2018-06-27T02:02:05.782Z,18.67
2018-06-27T02:04:34.274Z,19.52
2018-06-27T02:07:02.812Z,20.05
2018-06-27T02:09:31.933Z,20.12
2018-06-27T02:12:09.741Z,20.30
2018-06-27T02:14:42.367Z,19.20
2018-06-27T02:17:11.185Z,18.77
2018-06-27T02:19:40.627Z,19.25
2018-06-27T02:22:09.700Z,18.92
2018-06-27T02:24:39.040Z,18.80
2018-06-27T02:27:09.426Z,20.25
2018-06-27T02:29:38.381Z,19.50
2018-06-27T02:32:07.515Z,20.40
2018-06-27T02:34:35.941Z,18.80
2018-06-27T02:37:04.942Z,19.95
2018-06-27T02:39:33.762Z,18.98
2018-06-27T02:42:02.201Z,20.45
2018-06-27T02:44:35.100Z,18.92
2018-06-27T02:47:03.529Z,20.02
2018-06-27T02:49:32.749Z,18.87
2018-06-27T02:52:01.188Z,20.12
2018-06-27T02:54:34.867Z,19.40
2018-06-27T03:06:48.350Z,20.15
2018-06-27T03:09:17.785Z,20.95
2018-06-27T03:11:47.489Z,20.80
2018-06-27T03:14:15.893Z,22.62
2018-06-27T03:16:45.156Z,21.17
2018-06-27T03:19:13.647Z,20.68
2018-06-27T03:21:42.622Z,20.88
2018-06-27T03:24:11.040Z,19.85
2018-06-27T03:26:41.274Z,21.75
2018-06-27T03:29:14.557Z,20.92
2018-06-27T03:31:44.114Z,21.57
2018-06-27T03:34:17.069Z,22.30
2018-06-27T03:36:46.405Z,20.23
2018-06-27T03:39:15.397Z,20.20
2018-06-27T03:41:45.098Z,21.25
2018-06-27T03:44:13.560Z,20.40
2018-06-27T03:46:41.972Z,21.00
2018-06-27T04:02:10.571Z,19.57
2018-06-27T04:04:39.648Z,20.75
2018-06-27T04:25:36.963Z,18.25
2018-06-27T04:33:52.163Z,19.12
2018-06-27T04:36:32.825Z,18.60
2018-06-27T04:39:16.625Z,19.17
2018-06-27T04:50:40.469Z,19.50
2018-06-27T05:02:55.238Z,19.37
2018-06-27T06:29:25.548Z,31.12
2018-06-27T06:31:55.031Z,29.10
2018-06-27T06:34:23.452Z,30.32
2018-06-27T06:36:53.016Z,28.42
2018-06-27T06:39:21.421Z,28.95
2018-06-27T06:41:50.029Z,27.45
2018-06-27T06:44:18.476Z,30.10
2018-06-27T06:46:47.188Z,27.45
2018-06-27T06:49:15.304Z,27.45
2018-06-27T06:51:45.600Z,24.40
2018-06-27T06:54:14.613Z,25.72
2018-06-27T06:56:43.064Z,25.60
2018-06-27T06:59:16.458Z,24.98
2018-06-27T07:01:44.930Z,25.50
2018-06-27T07:04:13.392Z,25.12
2018-06-27T07:06:42.607Z,26.02
2018-06-27T07:09:16.349Z,24.72
2018-06-27T07:11:45.353Z,24.55
2018-06-27T07:14:13.811Z,22.05
2018-06-27T07:16:42.309Z,20.77
2018-06-27T07:19:11.361Z,20.27
2018-06-27T07:21:40.196Z,19.65
2018-06-27T07:24:08.696Z,18.32
2018-06-27T07:26:38.061Z,17.85
2018-06-27T07:29:06.515Z,17.80
2018-06-27T07:31:35.959Z,17.30
2018-06-27T07:34:05.160Z,18.75
2018-06-27T07:36:33.661Z,16.25
2018-06-27T07:39:03.134Z,14.98
2018-06-27T07:41:36.857Z,15.30
2018-06-27T07:44:06.029Z,15.90
2018-06-27T07:46:34.610Z,15.00
2018-06-27T07:49:04.401Z,15.72
2018-06-27T07:51:34.330Z,16.07
2018-06-27T07:54:03.735Z,15.60
2018-06-27T07:56:32.415Z,15.45
2018-06-27T07:59:01.194Z,15.58
2018-06-27T08:01:29.716Z,15.25
2018-06-27T08:03:58.301Z,14.13
2018-06-27T08:06:35.522Z,12.85
2018-06-27T08:09:07.353Z,11.55
2018-06-27T08:21:20.874Z,8.15
2018-06-27T08:23:54.630Z,7.40
2018-06-27T08:26:28.340Z,6.53
2018-06-27T08:28:57.293Z,6.75
2018-06-27T08:31:26.775Z,6.55
2018-06-27T08:33:56.224Z,5.30
2018-06-27T08:36:35.854Z,4.58
2018-06-27T08:39:08.305Z,4.55
2018-06-27T08:41:37.234Z,4.90
2018-06-27T08:44:05.667Z,4.45
2018-06-27T08:46:35.028Z,4.25
2018-06-27T08:49:04.002Z,4.87
2018-06-27T08:51:36.541Z,4.30
2018-06-27T09:07:10.497Z,2.70
2018-06-27T09:09:39.707Z,2.20
2018-06-27T09:12:13.345Z,2.10
2018-06-27T09:24:32.885Z,1.57
2018-06-27T09:27:01.317Z,1.82
2018-06-27T09:29:30.041Z,1.77
2018-06-27T09:31:58.525Z,1.80
2018-06-27T09:34:27.064Z,1.52
2018-06-27T09:36:55.514Z,1.62
2018-06-27T09:39:24.050Z,1.62
2018-06-27T09:41:53.462Z,1.50
2018-06-27T09:44:22.735Z,1.57
2018-06-27T09:46:51.178Z,1.62
2018-06-27T09:49:21.020Z,1.42
2018-06-27T09:51:50.406Z,1.50
2018-06-27T09:54:19.155Z,1.40
2018-06-27T09:56:48.262Z,1.40
2018-06-27T09:59:16.742Z,1.20
2018-06-27T10:01:45.889Z,1.25
2018-06-27T10:04:14.326Z,1.50
2018-06-27T10:06:42.805Z,1.27
2018-06-27T10:09:11.529Z,1.20
2018-06-27T10:11:40.128Z,1.02
2018-06-27T10:14:09.417Z,0.95
2018-06-27T10:16:38.853Z,1.00
2018-06-27T10:19:08.309Z,1.20
2018-06-27T10:34:42.178Z,1.17
2018-06-27T10:37:10.671Z,0.90
2018-06-27T10:39:39.709Z,1.20
2018-06-27T10:42:08.292Z,1.22
2018-06-27T10:44:37.808Z,1.02
2018-06-27T10:47:06.930Z,1.12
2018-06-27T10:49:35.373Z,1.15
2018-06-27T10:52:04.549Z,1.57
2018-06-27T10:54:37.213Z,1.10
2018-06-27T10:57:07.370Z,1.10
2018-06-27T10:59:35.838Z,1.10
2018-06-27T11:02:04.302Z,0.93
2018-06-27T11:04:32.934Z,1.05
2018-06-27T11:07:01.554Z,1.00
2018-06-27T11:09:30.045Z,1.20
2018-06-27T11:11:58.537Z,1.02
2018-06-27T11:14:26.959Z,0.80
2018-06-27T11:16:56.436Z,1.10
2018-06-27T11:19:29.783Z,0.90
2018-06-27T11:21:58.535Z,0.90
2018-06-27T11:37:27.151Z,1.20
2018-06-27T11:39:55.598Z,1.30
2018-06-27T11:42:24.130Z,1.20
2018-06-27T11:44:53.742Z,1.20
2018-06-27T11:47:22.444Z,1.00
2018-06-27T11:49:51.209Z,1.10
2018-06-27T11:52:19.883Z,1.20
2018-06-27T11:54:55.489Z,1.07
2018-06-27T11:57:28.008Z,1.10
2018-06-27T11:59:56.873Z,1.20
2018-06-27T12:02:25.393Z,1.10
2018-06-27T12:04:53.859Z,1.40
2018-06-27T12:07:22.325Z,1.27
2018-06-27T12:09:51.055Z,1.25
2018-06-27T12:12:20.507Z,1.35
2018-06-27T12:24:35.024Z,1.30
2018-06-27T12:27:03.469Z,1.10
2018-06-27T12:29:32.084Z,1.10
2018-06-27T12:32:00.652Z,1.20
2018-06-27T12:34:29.189Z,1.00
2018-06-27T12:36:58.472Z,1.30
2018-06-27T12:39:27.477Z,1.22
2018-06-27T12:41:56.133Z,1.17
2018-06-27T12:44:26.436Z,1.15
2018-06-27T12:46:55.337Z,1.00
2018-06-27T12:49:23.823Z,1.42
2018-06-27T12:51:52.390Z,1.30
2018-06-27T12:54:21.997Z,1.30
2018-06-27T12:56:50.775Z,1.10
2018-06-27T12:59:19.293Z,1.40
2018-06-27T13:01:48.639Z,1.27
2018-06-27T13:04:17.165Z,1.20
2018-06-27T13:06:45.648Z,1.05
2018-06-27T13:09:14.210Z,1.20
2018-06-27T13:11:43.447Z,1.02
2018-06-27T13:14:12.001Z,1.00
2018-06-27T13:16:40.449Z,1.00
2018-06-27T13:19:10.846Z,1.30
2018-06-27T13:21:43.341Z,1.00
2018-06-27T13:24:11.802Z,1.12
2018-06-27T13:26:40.323Z,1.00
2018-06-27T13:29:08.799Z,1.32
2018-06-27T13:31:37.309Z,1.25
2018-06-27T13:34:06.887Z,0.98
2018-06-27T13:36:35.406Z,1.20
2018-06-27T13:39:06.759Z,1.20
2018-06-27T13:41:36.922Z,1.17
2018-06-27T13:44:05.544Z,1.10
2018-06-27T13:46:34.870Z,1.20
2018-06-27T13:49:04.415Z,1.62
2018-06-27T13:51:32.889Z,1.07
2018-06-27T13:54:01.634Z,1.55
2018-06-27T13:56:30.250Z,1.20
2018-06-27T13:58:59.363Z,1.20
2018-06-27T14:01:27.809Z,1.20
2018-06-27T14:03:56.302Z,1.10
2018-06-27T14:06:29.705Z,1.40
2018-06-27T14:08:59.165Z,1.10
2018-06-27T14:11:27.746Z,1.00
2018-06-27T14:13:56.169Z,1.25
2018-06-27T14:16:24.654Z,1.45
2018-06-27T14:18:57.580Z,1.17
2018-06-27T14:21:27.048Z,1.40
2018-06-27T14:23:55.583Z,1.92
2018-06-27T14:26:24.049Z,1.10
2018-06-27T14:28:52.622Z,1.05
2018-06-27T14:31:21.066Z,1.10
2018-06-27T14:33:49.499Z,1.10
2018-06-27T14:36:18.086Z,1.37
2018-06-27T14:38:46.535Z,1.20
2018-06-27T14:41:15.560Z,1.00
2018-06-27T14:43:47.169Z,1.10
2018-06-27T14:46:15.728Z,1.00
2018-06-27T14:48:45.073Z,1.10
2018-06-27T14:51:14.162Z,1.40
2018-06-27T14:53:42.691Z,3.60
2018-06-27T14:56:11.861Z,1.20
2018-06-27T14:58:44.921Z,1.22
2018-06-27T15:01:13.137Z,1.30
2018-06-27T15:03:41.746Z,1.07
2018-06-27T15:06:10.229Z,9.55
2018-06-27T15:08:38.918Z,1.60
2018-06-27T15:11:11.989Z,1.17
2018-06-27T15:13:40.472Z,1.00
2018-06-27T15:16:08.931Z,1.25
2018-06-27T15:18:40.867Z,1.60
2018-06-27T15:21:10.635Z,1.00
2018-06-27T15:23:57.484Z,1.10
2018-06-27T15:26:26.924Z,1.32
2018-06-27T15:28:56.495Z,1.40
2018-06-27T15:31:25.996Z,1.80
2018-06-27T15:33:54.484Z,1.30
2018-06-27T15:36:24.526Z,1.10
2018-06-27T15:38:54.327Z,1.00
2018-06-27T15:41:22.874Z,1.40
2018-06-27T15:43:51.390Z,1.30
2018-06-27T15:46:20.910Z,1.67
2018-06-27T15:48:49.608Z,0.90
2018-06-27T15:51:18.101Z,0.93
2018-06-27T15:53:46.698Z,1.15
2018-06-27T15:56:17.217Z,0.90
2018-06-27T15:58:48.077Z,1.20
2018-06-27T16:01:16.547Z,2.35
2018-06-27T16:03:45.263Z,4.80
2018-06-27T16:06:13.796Z,1.30
2018-06-27T16:08:42.353Z,1.30
2018-06-27T16:11:10.967Z,1.37
2018-06-27T16:13:39.466Z,2.30
2018-06-27T16:16:08.037Z,1.50
2018-06-27T16:18:36.570Z,1.20
2018-06-27T16:21:05.253Z,1.00
2018-06-27T16:23:34.314Z,1.10
2018-06-27T16:26:03.069Z,1.37
2018-06-27T16:28:33.244Z,1.40
2018-06-27T16:31:02.214Z,1.50
2018-06-27T16:33:31.002Z,1.90
2018-06-27T16:35:59.480Z,1.20
2018-06-27T16:38:28.631Z,1.10
2018-06-27T16:40:57.181Z,1.00
2018-06-27T16:43:25.763Z,1.15
2018-06-27T16:45:55.471Z,1.30
2018-06-27T16:48:24.325Z,0.90
2018-06-27T16:50:53.040Z,1.32
2018-06-27T16:53:21.602Z,1.30
2018-06-27T16:55:50.130Z,1.30
2018-06-27T16:58:18.640Z,1.20
2018-06-27T17:00:58.452Z,1.10
2018-06-27T17:03:27.471Z,1.40
2018-06-27T17:05:56.081Z,2.05
2018-06-27T17:21:19.697Z,1.05
2018-06-27T17:23:48.886Z,0.90
2018-06-27T17:26:18.142Z,1.00
2018-06-27T17:28:46.827Z,0.80
2018-06-27T17:31:15.370Z,1.40
2018-06-27T17:33:43.932Z,1.10
2018-06-27T17:36:12.537Z,1.55
2018-06-27T17:38:41.044Z,1.60
2018-06-27T17:41:09.867Z,1.10
2018-06-27T17:43:38.337Z,1.95
2018-06-27T17:46:06.932Z,1.27
2018-06-27T17:48:36.559Z,1.35
2018-06-27T17:51:05.283Z,0.93
2018-06-27T17:53:39.712Z,0.95
2018-06-27T17:56:08.379Z,1.00
2018-06-27T17:58:50.246Z,1.12
2018-06-27T18:01:18.909Z,1.55
2018-06-27T18:03:47.479Z,1.30
2018-06-27T18:06:16.272Z,1.72
2018-06-27T18:08:45.431Z,1.12
2018-06-27T18:11:14.456Z,1.02
2018-06-27T18:13:43.688Z,1.30
2018-06-27T18:16:19.672Z,1.00
2018-06-27T18:18:48.344Z,1.02
